Tiempo atmosférico en la estación meteorológica de Palma Aeropuerto, Illes Balears (8 m.)



Fecha
DESCASC
Temp. máxima en grados centígrados (hora)
DESCASC
Temp. mínima en grados centígrados (hora)
DESCASC
Temp. media en grados centígrados
DESCASC
Racha de viento máxima en m/sg (hora)
DESCASC
Velocidad máxima media en intervalos de 10 minutos(hora)
DESCASC
Precipitaciones diarias en mm
DESCASC
Precipitaciones de 00:00 a 06:00 en mm
DESCASC
Precipitaciones de 06:00 a 12:00 en mm
DESCASC
Precipitaciones de 12:00 a 18:00 en mm
DESCASC
Precipitaciones de 18:00 a 24:00 en mm
DESCASC

Gráficas

Temp. máximas Temp. mínimas Temp. medias Precipitaciones Rachas de viento máximas Velocidades máximas media en intervalos de 10 minutos

Datos horarios

Fecha y hora oficial Temperatura (ºC) Velocidad del viento (km/h) Dirección del viento Racha (km/h) Dirección de racha Precipitación (mm) Presión (hPa) Tendencia (hPa) Humedad (%)
2020-02-20 23:00:00 6.3 5 Nordeste 5 Nordeste 0 1026.9 0.9 94
2020-02-20 22:00:00 7.3 4 Nordeste 9 Este 0 1026.4 1 92
2020-02-20 21:00:00 8.6 5 Este 11 Este 0 1026 1 88
2020-02-20 20:00:00 10.1 6 Este 11 Este 0 1026 1.3 86
2020-02-20 19:00:00 12.9 8 Sudoeste 15 Sur 0 1025.4 0.6 74
2020-02-20 18:00:00 14.5 10 Sudoeste 24 Sudoeste 0 1025 0.3 68
2020-02-20 17:00:00 15.1 19 Sudoeste 28 Sudoeste 0 1024.7 -0.3 67
2020-02-20 16:00:00 15.5 19 Sudoeste 28 Sudoeste 0 1024.8 -0.9 65
2020-02-20 15:00:00 15.7 19 Sudoeste 28 Sudoeste 0 1024.7 -1.7 66
2020-02-20 14:00:00 15.8 18 Sudoeste 26 Sudoeste 0 1025 -1.4 64
2020-02-20 13:00:00 15.7 13 Sudoeste 22 Sudoeste 0 1025.7 -1 63
2020-02-20 12:00:00 15.5 11 Sudoeste 18 Sudoeste 0 1026.4 -0.3 59
2020-02-20 11:00:00 14.7 2 Nordeste 4 Este 0 1026.4 0 49
2020-02-20 10:00:00 10.7 0 Calma 4 Noroeste 0 1026.7 0.5 63
2020-02-20 09:00:00 6 0 Calma -- -- 0 1026.7 0.6 85
2020-02-20 08:00:00 2.2 6 Norte -- -- 0 1026.4 0.3 94
2020-02-20 07:00:00 2 5 Nordeste -- -- 0 1026.2 -0.6 95
2020-02-20 06:00:00 2.3 5 Nordeste 5 Nordeste 0 1026.1 -1.2 94
2020-02-20 05:00:00 2.2 4 Nordeste -- -- 0 1026.1 -1.8 94
2020-02-20 04:00:00 2.6 3 Norte 8 Nordeste 0 1026.8 -1.4 94
2020-02-20 03:00:00 2.9 3 Norte -- -- 0 1027.3 -1.2 93
2020-02-20 02:00:00 3.5 3 Este 5 Nordeste 0 1027.9 -1 92
2020-02-20 01:00:00 4.2 4 Este 8 Este 0 1028.2 -0.9 91
2020-02-20 00:00:00 4.8 4 Este 8 Norte 0 1028.5 -0.8 90
2020-02-19 23:00:00 6.2 6 Este 11 Este 0 1028.9 -0.3 86
2020-02-19 22:00:00 7.1 4 Nordeste 9 Oeste 0 1029.1 0 84
2020-02-19 21:00:00 10.3 6 Oeste 9 Oeste 0 1029.3 0.6 68
2020-02-19 20:00:00 11.3 8 Oeste 13 Noroeste 0 1029.2 0.1 66
2020-02-19 19:00:00 12.6 9 Oeste 28 Sudoeste 0 1029.1 -0.5 62
2020-02-19 18:00:00 14.8 19 Sudoeste 28 Sudoeste 0 1028.7 -1.3 58
2020-02-19 17:00:00 15.3 19 Sudoeste 26 Sudoeste 0 1029.1 -1.5 59
2020-02-19 16:00:00 15.8 20 Sudoeste 26 Sudoeste 0 1029.6 -1.7 57
2020-02-19 15:00:00 16.6 16 Sudoeste 24 Oeste 0 1030 -1.8 51
2020-02-19 14:00:00 16.7 11 Noroeste 22 Oeste 0 1030.6 -1.4 46
2020-02-19 13:00:00 16.6 12 Noroeste 22 Noroeste 0 1031.3 -0.4 50
2020-02-19 12:00:00 15.8 14 Noroeste 22 Norte 0 1031.8 1.1 50
2020-02-19 11:00:00 15.2 14 Noroeste 22 Noroeste 0 1032 1.7 53
2020-02-19 10:00:00 12.3 3 Oeste 8 Nordeste 0 1031.7 1.4 78
2020-02-19 09:00:00 7.7 3 Norte 8 Este 0 1030.7 0.3 91
2020-02-19 08:00:00 5.6 3 Nordeste -- -- 0 1030.3 -0.1 96
2020-02-19 07:00:00 5 4 Este 8 Norte 0 1030.3 0 96
2020-02-19 06:00:00 4.2 3 Nordeste 8 Este 0 1030.4 -0.1 96
2020-02-19 05:00:00 5 -- -- -- -- 0 1030.4 -0.2 95
2020-02-19 04:00:00 5.5 3 Nordeste 5 Este 0 1030.3 -0.7 95
2020-02-19 03:00:00 6.8 4 Este 5 Este 0 1030.5 -0.8 94
2020-02-19 02:00:00 7.8 5 Nordeste 9 Este 0 1030.6 -0.5 91
2020-02-19 01:00:00 8.4 2 Nordeste 9 Nordeste 0 1031 -0.3 92
2020-02-19 00:00:00 8 6 Nordeste 9 Este 0 1031.3 0.4 93
2020-02-18 23:00:00 9 5 Este -- -- 0 1031.1 0.4 90
2020-02-18 22:00:00 9.6 2 Nordeste 8 Norte 0 1031.3 0.9 89
2020-02-18 21:00:00 9.5 7 Norte 8 Norte 0 1030.9 0.8 89
2020-02-18 20:00:00 11.1 6 Nordeste 8 Nordeste 0 1030.7 0.7 83
2020-02-18 19:00:00 11.8 4 Este 13 Este 0 1030.4 0.5 79
2020-02-18 18:00:00 12.9 10 Nordeste 18 Este 0 1030.1 -0.1 75
2020-02-18 17:00:00 13.4 15 Este 21 Este 0 1030 -0.7 74
2020-02-18 16:00:00 13.8 15 Este 24 Este 0 1029.9 -1.5 70
2020-02-18 15:00:00 14.5 17 Este 26 Este 0 1030.2 -1.8 67
2020-02-18 14:00:00 14.5 18 Este 26 Nordeste 0 1030.7 -1.3 67
2020-02-18 13:00:00 14.8 13 Este 28 Este 0 1031.4 -0.4 67
2020-02-18 12:00:00 14.5 18 Este 30 Este 0 1032 0.6 68
2020-02-18 11:00:00 13.9 25 Este 37 Nordeste 0 1032 1 69
2020-02-18 10:00:00 13.7 24 Nordeste 30 Este 0 1031.8 1.7 69
2020-02-18 09:00:00 13 16 Nordeste 30 Nordeste 0 1031.4 1.8 70
2020-02-18 08:00:00 12.9 15 Nordeste 30 Nordeste 0 1031 1.8 69
2020-02-18 07:00:00 13.1 17 Nordeste 33 Este 0 1030.1 1.5 68
2020-02-18 06:00:00 13.1 16 Nordeste 28 Nordeste 0 1029.6 0.5 69
2020-02-18 05:00:00 12.4 15 Nordeste 39 Este 0 1029.2 0.2 75
2020-02-18 04:00:00 12.8 23 Este 35 Nordeste 0 1028.6 -0.3 74
2020-02-18 03:00:00 13 14 Este 32 Este 0 1029.1 0.4 74
2020-02-18 02:00:00 13.2 11 Nordeste 21 Este 0 1029 0.5 79
2020-02-18 01:00:00 13.4 14 Nordeste 22 Nordeste 0 1028.9 1.1 83
2020-02-18 00:00:00 11.8 5 Este 15 Este 0 1028.7 2 93
2020-02-17 23:00:00 12.1 3 Nordeste 11 Nordeste 0 1028.5 2.8 94
2020-02-17 22:00:00 12.3 6 Este 21 Este 0 1027.8 2.8 94
2020-02-17 21:00:00 11 9 Este 17 Sudoeste 0 1026.7 2.1 92
2020-02-17 20:00:00 13.2 13 Sudoeste 18 Sudoeste 0 1025.7 1.5 89
2020-02-17 19:00:00 14.1 15 Sudoeste 21 Sudoeste 0 1025 0.9 86
2020-02-17 18:00:00 15 17 Sudoeste 26 Sudoeste 0 1024.6 0.5 81
2020-02-17 17:00:00 15.7 19 Sudoeste 30 Sudoeste 0 1024.2 -0.4 80
2020-02-17 16:00:00 15.6 20 Sudoeste 30 Sudoeste 0 1024.1 -1.3 79
2020-02-17 15:00:00 15.6 19 Sudoeste 28 Sudoeste 0 1024.1 -1.9 79
2020-02-17 14:00:00 15.3 22 Sudoeste 30 Sudoeste 0 1024.6 -1.5 81
2020-02-17 13:00:00 15.1 22 Sudoeste 28 Sudoeste 0 1025.4 -0.7 81
2020-02-17 12:00:00 14.7 21 Sudoeste 28 Sudoeste 0 1026 0.1 82
2020-02-17 11:00:00 14.7 17 Sudoeste 30 Sudoeste 0 1026.1 0.4 80
2020-02-17 10:00:00 14.2 16 Sudoeste 22 Sudoeste 0 1026.1 0.9 83
2020-02-17 09:00:00 13.9 16 Sudoeste 24 Sudoeste 0 1025.9 0.5 83
2020-02-17 08:00:00 13.8 17 Sudoeste 22 Sudoeste 0 1025.7 0.3 83
2020-02-17 07:00:00 13.6 14 Sudoeste 22 Sudoeste 0 1025.2 -0.3 82
2020-02-17 06:00:00 13.3 16 Sudoeste 22 Sudoeste 0 1025.4 -0.7 82
2020-02-17 05:00:00 13.4 10 Sudoeste 22 Sudoeste 0 1025.4 -1 83
2020-02-17 04:00:00 13.5 12 Sudoeste 15 Sudoeste 0 1025.5 -1.4 83
2020-02-17 03:00:00 13.7 13 Sudoeste 18 Sudoeste 0 1026.1 -1.1 81
2020-02-17 02:00:00 13.8 12 Sur 21 Sur 0 1026.4 -1.1 81
2020-02-17 01:00:00 13.8 8 Sudoeste 18 Sudoeste 0 1026.9 -0.8 81
2020-02-17 00:00:00 13.6 3 Sur 13 Sudoeste 0 1027.2 -0.4 81
2020-02-16 23:00:00 13.8 8 Sur 17 Sudoeste 0 1027.5 0 78
2020-02-16 22:00:00 13.8 6 Sudoeste 15 Sur 0 1027.7 0.6 79
2020-02-16 21:00:00 13.9 8 Sur 15 Sudoeste 0 1027.6 1 78
2020-02-16 20:00:00 13.8 9 Sur 18 Sudoeste 0 1027.5 0.8 78
2020-02-16 19:00:00 13.9 12 Sudoeste 18 Sudoeste 0 1027.1 0.2 78
2020-02-16 18:00:00 14 11 Sur 22 Sur 0 1026.6 -0.5 77
2020-02-16 17:00:00 14.1 11 Sur 22 Sur 0 1026.7 -0.8 76
2020-02-16 16:00:00 14.6 11 Sur 18 Sudoeste 0 1026.9 -1.4 73
2020-02-16 15:00:00 14.7 14 Sudoeste 21 Sudoeste 0 1027.1 -1.9 74
2020-02-16 14:00:00 15 14 Sudoeste 22 Sudoeste 0 1027.5 -1.4 71
2020-02-16 13:00:00 14.9 14 Sudoeste 28 Sur 0 1028.3 -0.1 73
2020-02-16 12:00:00 14.7 12 Sudoeste 24 Sur 0 1029 1 74
2020-02-16 11:00:00 14.3 10 Sudoeste 18 Sudoeste 0 1028.9 1.3 77
2020-02-16 10:00:00 13.9 9 Sudoeste 24 Sur 0 1028.4 1.2 77
2020-02-16 09:00:00 13.7 9 Sudoeste 18 Sudoeste 0 1028 0.5 79
2020-02-16 08:00:00 13.6 6 Sudoeste 18 Sudoeste 0 1027.6 -0.2 78
2020-02-16 07:00:00 13.4 9 Sur 17 Sudoeste 0 1027.2 -0.8 82
2020-02-16 06:00:00 13.5 9 Sudoeste 13 Oeste 0 1027.5 -0.7 81
2020-02-16 05:00:00 13.7 10 Sudoeste 17 Sudoeste 0 1027.8 -0.4 80
2020-02-16 04:00:00 13.7 8 Oeste 17 Sudoeste 0 1028 -0.1 79
2020-02-16 03:00:00 13.7 12 Oeste 18 Sudoeste 0 1028.2 0.1 80
2020-02-16 02:00:00 13.6 10 Sudoeste 17 Sudoeste 0 1028.2 -0.1 82
2020-02-16 01:00:00 13.5 3 Oeste 18 Sudoeste 0 1028.1 -0.1 82
2020-02-16 00:00:00 13.6 10 Sudoeste 17 Sur 0 1028.1 0.4 81
2020-02-15 23:00:00 13.7 10 Sudoeste 15 Sudoeste 0 1028.3 1.3 82
2020-02-15 22:00:00 13.6 0 Calma 15 Sudoeste 0 1028.2 1.2 83
2020-02-15 21:00:00 13.6 5 Sur 9 Sur 0 1027.7 0.7 84
2020-02-15 20:00:00 13.5 7 Sur 17 Sudoeste 0 1027 0.6 84
2020-02-15 19:00:00 13.8 11 Sudoeste 22 Sudoeste 0 1027 0.9 83
2020-02-15 18:00:00 14.5 14 Sudoeste 21 Sudoeste 0 1027 1 79
2020-02-15 17:00:00 15.4 13 Sudoeste 22 Sudoeste 0 1026.4 0 76
2020-02-15 16:00:00 16.1 15 Sudoeste 24 Sudoeste 0 1026.1 -0.7 73
2020-02-15 15:00:00 16.3 16 Sudoeste 24 Sur 0 1026 -1 73
2020-02-15 14:00:00 16.3 15 Sudoeste 24 Sudoeste 0 1026.4 -0.7 72
2020-02-15 13:00:00 16.3 15 Oeste 24 Oeste 0 1026.8 -0.2 74
2020-02-15 12:00:00 15.8 12 Sudoeste 18 Sudoeste 0 1027 0.6 75
2020-02-15 11:00:00 15.4 7 Sur 15 Sudoeste 0 1027.1 1.2 76
2020-02-15 10:00:00 13.5 8 Norte 13 Norte 0 1027 1.8 84
2020-02-15 09:00:00 12 8 Norte 13 Norte 0 1026.4 1.4 88
2020-02-15 08:00:00 11 6 Noroeste 11 Norte 0 1025.9 0.9 92
2020-02-15 07:00:00 10.9 8 Norte 11 Norte 0 1025.2 0.1 92
2020-02-15 06:00:00 11.6 7 Norte 11 Norte 0 1025 -0.1 94
2020-02-15 05:00:00 11.7 3 Norte 9 Este 0 1025 -0.1 97
2020-02-15 04:00:00 11.5 7 Este 11 Este 0 1025.1 -0.2 97
2020-02-15 03:00:00 12 4 Sudeste 9 Norte 0 1025.1 -0.2 96
2020-02-15 02:00:00 12.5 6 Norte 8 Norte 0 1025.1 -0.2 94
2020-02-15 01:00:00 12.9 6 Norte 9 Norte 0 1025.3 0.1 91
2020-02-15 00:00:00 14 4 Sur 9 Sur 0 1025.3 0.4 90
2020-02-14 23:00:00 14.2 5 Sudeste 9 Sur 0 1025.3 0.7 91
2020-02-14 22:00:00 14.1 5 Este 9 Sur 0 1025.2 1 92
2020-02-14 21:00:00 14.4 7 Sudeste 11 Sudeste 0 1024.9 1.2 90
2020-02-14 20:00:00 14.7 5 Oeste 13 Sudoeste 0 1024.6 1 91
2020-02-14 19:00:00 14.6 8 Sudoeste 18 Sudoeste 0 1024.2 0.4 92
2020-02-14 18:00:00 15.1 12 Sudoeste 18 Sudoeste 0 1023.7 -0.3 88
2020-02-14 17:00:00 16.3 15 Sudoeste 22 Sudoeste 0 1023.6 -0.9 83
2020-02-14 16:00:00 17.1 14 Sudoeste 21 Sudoeste 0 1023.8 -1.2 81
2020-02-14 15:00:00 17.4 14 Sudoeste 21 Sudoeste 0 1024 -1.7 80
2020-02-14 14:00:00 17.8 9 Sudoeste 13 Sudoeste 0 1024.5 -1 75
2020-02-14 13:00:00 16.6 6 Sudoeste 15 Sudoeste 0 1025 0 80
2020-02-14 12:00:00 15.2 6 Sur 15 Sudoeste 0 1025.7 1.1 86
2020-02-14 11:00:00 14 4 Sudoeste 9 Sudeste 0 1025.5 1.4 94
2020-02-14 10:00:00 13 5 Sur 11 Sudoeste 0 1025 1.6 98
2020-02-14 09:00:00 12.2 3 Oeste 9 Norte 0 1024.6 1.4 98
2020-02-14 08:00:00 11.1 6 Norte 8 Norte 0 1024.1 1.2 98
2020-02-14 07:00:00 11.5 2 Sur 9 Noroeste 0 1023.4 0.4 98
2020-02-14 06:00:00 11.5 5 Noroeste 8 Noroeste 0 1023.2 -0.2 98
2020-02-14 05:00:00 10.9 2 Nordeste 8 Oeste 0 1022.9 -0.2 98
2020-02-14 04:00:00 9.3 2 Nordeste -- -- 0 1023 -0.3 98
2020-02-14 03:00:00 9.1 4 Este 8 Nordeste 0 1023.4 0.5 97
2020-02-14 02:00:00 9.6 6 Este 9 Este 0 1023.1 0.4 96
2020-02-14 01:00:00 10.2 5 Este 17 Sudoeste 0 1023.3 0.8 94
2020-02-14 00:00:00 13.6 15 Sudoeste 18 Sudoeste 0 1022.9 0.4 91
2020-02-13 23:00:00 13.5 11 Sudoeste 21 Sudoeste 0 1022.7 0.3 87
2020-02-13 22:00:00 14.1 15 Sudoeste 22 Sudoeste 0 1022.5 0.5 91
2020-02-13 21:00:00 14.2 14 Sudoeste 24 Sudoeste 0 1022.5 1.4 90
2020-02-13 20:00:00 14.1 18 Sudoeste 30 Sudoeste 0 1022.4 1.8 88
2020-02-13 19:00:00 14.3 17 Sudoeste 32 Sudoeste 0 1022 1.2 87
2020-02-13 18:00:00 15.3 24 Sudoeste 30 Sudoeste 0 1021.1 0.3 82
2020-02-13 17:00:00 16.4 23 Sudoeste 32 Sudoeste 0 1020.6 -0.8 78
2020-02-13 16:00:00 16.8 25 Sudoeste 35 Sudoeste 0 1020.8 -1.4 78
2020-02-13 15:00:00 17.1 22 Sudoeste 30 Sudoeste 0 1020.8 -2 76
2020-02-13 14:00:00 17.6 15 Sudoeste 22 Sudoeste 0 1021.4 -1.1 66
2020-02-13 13:00:00 17.8 12 Sudoeste 18 Sudoeste 0 1022.2 -0.1 66
2020-02-13 12:00:00 16.9 4 Oeste 13 Noroeste 0 1022.8 0.8 72
2020-02-13 11:00:00 15.1 5 Noroeste 8 Noroeste 0 1022.5 0.8 81
2020-02-13 10:00:00 12.8 4 Norte 8 Norte 0 1022.3 0.8 90
2020-02-13 09:00:00 10 5 Norte -- -- 0 1022 0.5 96
2020-02-13 08:00:00 9.6 3 Noroeste 9 Noroeste 0 1021.7 0.4 96
2020-02-13 07:00:00 10.2 7 Norte 8 Norte 0 1021.5 -0.1 95
2020-02-13 06:00:00 10.8 6 Norte 11 Norte 0 1021.5 -0.7 94
2020-02-13 05:00:00 11.2 8 Este 11 Este 0 1021.3 -1.3 93
2020-02-13 04:00:00 12.1 4 Nordeste 9 Nordeste 0 1021.6 -1.4 90
2020-02-13 03:00:00 12.8 6 Nordeste 11 Este 0 1022.2 -0.9 88
2020-02-13 02:00:00 12.9 7 Este 11 Este 0 1022.6 -1 88
2020-02-13 01:00:00 12.9 8 Este 13 Este 0 1023 -0.8 87
2020-02-13 00:00:00 12.8 8 Este 11 Este 0 1023.1 -0.6 88
2020-02-12 23:00:00 13 9 Nordeste 15 Nordeste 0 1023.6 0 88
2020-02-12 22:00:00 13.5 10 Nordeste 15 Este 0 1023.8 0.4 85
2020-02-12 21:00:00 13.7 9 Nordeste 13 Nordeste 0 1023.7 0.7 84
2020-02-12 20:00:00 14.2 8 Nordeste 17 Sudeste 0 1023.6 0.6 82
2020-02-12 19:00:00 14.8 12 Este 22 Nordeste 0 1023.4 0.6 77
2020-02-12 18:00:00 15.2 10 Este 30 Este 0 1023 0 75
2020-02-12 17:00:00 15.7 13 Sudeste 24 Sudeste 0 1023 -0.7 74
2020-02-12 16:00:00 16.5 12 Sudeste 26 Sudeste 0 1022.8 -1.3 72
2020-02-12 15:00:00 16.5 17 Sudeste 30 Sudeste 0 1023 -1.8 70
2020-02-12 14:00:00 17 17 Sudeste 28 Sudeste 0 1023.7 -1.2 72
2020-02-12 13:00:00 17.9 18 Este 26 Este 0 1024.1 -0.5 68
2020-02-12 12:00:00 17.4 18 Este 22 Este 0 1024.8 0 71
2020-02-12 11:00:00 16.1 17 Este 32 Sudeste 0 1024.9 0.7 80
2020-02-12 10:00:00 14.5 10 Nordeste 15 Nordeste 0 1024.6 0.7 90
2020-02-12 09:00:00 11.7 2 Este 13 Norte 0 1024.8 1.6 96
2020-02-12 08:00:00 10.8 8 Norte 13 Norte 0 1024.2 1.7 96
2020-02-12 07:00:00 11.2 8 Nordeste 13 Este 0 1023.9 1.1 96
2020-02-12 06:00:00 10.1 8 Nordeste 11 Nordeste 0 1023.2 0.2 97
2020-02-12 05:00:00 8.9 5 Nordeste 8 Nordeste 0 1022.5 -1.3 97
2020-02-12 04:00:00 8.3 4 Nordeste 8 Nordeste 0 1022.8 -1.3 96
2020-02-12 03:00:00 8.5 5 Nordeste 8 Este 0 1023 -1.2 96
2020-02-12 02:00:00 9.2 5 Nordeste 9 Noroeste 0 1023.8 -0.7 95
2020-02-12 01:00:00 9.2 0 Calma 9 Nordeste 0 1024.1 0 95
2020-02-12 00:00:00 9.6 7 Este 9 Este 0 1024.2 0.7 94
2020-02-11 23:00:00 10.6 4 Este 8 Norte 0 1024.5 1.5 93
2020-02-11 22:00:00 11.5 3 Este 9 Noroeste 0 1024.1 1.3 91
2020-02-11 21:00:00 12.7 9 Noroeste 9 Norte 0 1023.5 1.3 87
2020-02-11 20:00:00 13.6 5 Norte 13 Este 0 1023 1.1 86
2020-02-11 19:00:00 14.6 10 Este 15 Este 0 1022.8 0.8 88
2020-02-11 18:00:00 16.6 0 Calma 13 Sudoeste 0 1022.2 0.1 80
2020-02-11 17:00:00 17.2 10 Sur 17 Sur 0 1021.9 -0.9 80
2020-02-11 16:00:00 17.9 11 Sudoeste 21 Sudoeste 0 1022 -1.6 77
2020-02-11 15:00:00 17.8 15 Sudoeste 24 Sudoeste 0 1022.1 -2.1 78
2020-02-11 14:00:00 17.6 17 Sudoeste 22 Sur 0 1022.8 -1.5 78
2020-02-11 13:00:00 17.3 7 Sudoeste 15 Sudoeste 0 1023.6 -0.2 75
2020-02-11 12:00:00 17.2 7 Sur 13 Sur 0 1024.2 0.3 76
2020-02-11 11:00:00 14.9 4 Sudoeste 9 Oeste 0 1024.3 0.8 92
2020-02-11 10:00:00 13 4 Nordeste 5 Nordeste 0 1023.8 0.3 98
2020-02-11 09:00:00 9.7 0 Calma 5 Nordeste 0 1023.9 0.3 99
2020-02-11 08:00:00 8.8 4 Este 8 Nordeste 0 1023.5 -0.1 99
2020-02-11 07:00:00 9.1 3 Norte 11 Norte 0 1023.5 -0.8 99
2020-02-11 06:00:00 7.6 2 Norte 8 Norte 0 1023.6 -1.5 98
2020-02-11 05:00:00 7.4 2 Norte 5 Norte 0 1023.6 -2 98
2020-02-11 04:00:00 7.7 4 Noroeste 8 Norte 0 1024.3 -2.1 98
2020-02-11 03:00:00 7.8 4 Norte 8 Norte 0 1025.1 -1.4 98
2020-02-11 02:00:00 7.9 5 Norte 5 Norte 0 1025.6 -1.2 97
2020-02-11 01:00:00 8.7 0 Calma 11 Norte 0 1026.4 -0.5 97
2020-02-11 00:00:00 9.7 5 Nordeste 8 Nordeste 0 1026.5 -0.2 97
2020-02-10 23:00:00 10.8 4 Nordeste 9 Nordeste 0 1026.8 0.2 95
2020-02-10 22:00:00 13.1 8 Sur 18 Sudoeste 0 1026.9 0.3 93
2020-02-10 21:00:00 13.6 7 Sur 18 Sudoeste 0 1026.7 0.4 92
2020-02-10 20:00:00 14.3 10 Sudoeste 17 Sudoeste 0 1026.6 0.2 90
2020-02-10 19:00:00 14.2 11 Sudoeste 26 Sudoeste 0 1026.6 -0.3 91
2020-02-10 18:00:00 15.6 19 Sudoeste 33 Sudoeste 0 1026.3 -0.8 85
2020-02-10 17:00:00 16.5 25 Sudoeste 35 Sudoeste 0 1026.4 -1.7 81
2020-02-10 16:00:00 16.9 26 Sudoeste 41 Sudoeste 0 1026.9 -2 80
2020-02-10 15:00:00 17.5 22 Sudoeste 32 Sudoeste 0 1027.1 -2.5 77
2020-02-10 14:00:00 17.7 25 Sudoeste 37 Sudoeste 0 1028.1 -1.3 75
2020-02-10 13:00:00 17.2 27 Sudoeste 37 Sudoeste 0 1028.9 -0.3 78
2020-02-10 12:00:00 17 29 Sudoeste 39 Sudoeste 0 1029.6 0.8 79
2020-02-10 11:00:00 16.4 26 Sudoeste 33 Oeste 0 1029.4 0.5 82
2020-02-10 10:00:00 15.8 23 Sudoeste 33 Sudoeste 0 1029.2 0.5 87
2020-02-10 09:00:00 14.1 21 Sudoeste 30 Sudoeste 0 1028.8 0 96
2020-02-10 08:00:00 11.8 2 Nordeste 8 Nordeste 0 1028.9 0.2 96
2020-02-10 07:00:00 12.4 3 Norte 9 Este 0 1028.7 0 94
2020-02-10 06:00:00 11.5 0 Calma 17 Oeste 0 1028.8 -0.9 94
2020-02-10 05:00:00 13.7 10 Oeste 21 Sudoeste 0 1028.7 -1.4 93
2020-02-10 04:00:00 13.1 10 Sudoeste 15 Sudoeste 0 1028.7 -1.8 94
2020-02-10 03:00:00 12.3 7 Noroeste 17 Sudoeste 0 1029.7 -1.1 93
2020-02-10 02:00:00 13.1 11 Sudoeste 15 Oeste 0 1030.1 -0.7 93
2020-02-10 01:00:00 13.3 9 Oeste 15 Sudoeste 0 1030.5 -0.3 93
2020-02-10 00:00:00 14 11 Oeste 18 Sudoeste 0 1030.8 0.4 90
2020-02-09 23:00:00 14.1 13 Sudoeste 18 Sur 0 1030.8 -0.1 91
2020-02-09 22:00:00 14.4 10 Sudoeste 15 Sudoeste 0 1030.8 1.1 91
2020-02-09 21:00:00 14.4 12 Sudoeste 17 Sudoeste 0 1030.4 0.8 92
2020-02-09 20:00:00 14.1 9 Oeste 17 Sudoeste 0 1030.9 1.5 92
2020-02-09 19:00:00 14.7 11 Sudoeste 15 Oeste 0 1029.7 0.7 89
2020-02-09 18:00:00 15 10 Sudoeste 18 Sudoeste 0 1029.6 0.7 86
2020-02-09 17:00:00 15.8 10 Sudoeste 21 Sudoeste 0 1029.4 -0.4 81
2020-02-09 16:00:00 15.6 14 Sudoeste 28 Sudoeste 0 1029 -1.2 81
2020-02-09 15:00:00 16.8 16 Sur 24 Sur 0 1028.9 -1.7 74
2020-02-09 14:00:00 16.9 14 Sudoeste 22 Sudoeste 0 1029.8 -0.6 71
2020-02-09 13:00:00 16.8 16 Sudoeste 22 Sur 0 1030.2 0.2 67
2020-02-09 12:00:00 16.7 3 Oeste 9 Norte 0 1030.6 1.1 69
2020-02-09 11:00:00 15.1 2 Este 5 Este 0 1030.4 1.5 75
2020-02-09 10:00:00 10.1 0 Calma -- -- 0 1030 1.6 93
2020-02-09 09:00:00 6 3 Norte 9 Norte 0 1029.5 1.9 97
2020-02-09 08:00:00 3.9 5 Nordeste 8 Nordeste 0 1028.9 1.9 97
2020-02-09 07:00:00 3.7 3 Este 8 Este 0 1028.4 1.5 96
2020-02-09 06:00:00 4.8 0 Calma 8 Norte 0 1027.6 0.9 97
2020-02-09 05:00:00 4.6 2 Este 5 Norte 0 1027 0.1 96
2020-02-09 04:00:00 4.4 2 Nordeste 8 Este 0 1026.9 -0.4 96
2020-02-09 03:00:00 5.1 4 Noroeste 8 Nordeste 0 1026.7 -0.6 96
2020-02-09 02:00:00 5.6 2 Nordeste 8 Este 0 1026.9 -0.3 96
2020-02-09 01:00:00 6.8 8 Este 13 Norte 0 1027.3 0.3 94
2020-02-09 00:00:00 7.1 0 Calma -- -- 0 1027.3 1 95
2020-02-08 23:00:00 7.7 4 Norte 9 Noroeste 0 1027.2 1.4 94
2020-02-08 22:00:00 8 5 Norte 11 Norte 0 1027 2.3 94
2020-02-08 21:00:00 8.8 6 Este 9 Este 0 1026.3 2.2 92
2020-02-08 20:00:00 10.3 7 Nordeste 13 Oeste 0 1025.8 2 89
2020-02-08 19:00:00 12.5 10 Oeste 17 Oeste 0 1024.7 1.1 80
2020-02-08 18:00:00 14.1 8 Oeste 24 Sudoeste 0 1024.1 0.5 67
2020-02-08 17:00:00 14.9 17 Sudoeste 26 Sudoeste 0 1023.8 -0.2 74
2020-02-08 16:00:00 14.8 17 Sudoeste 24 Sudoeste 0 1023.6 -0.9 74
2020-02-08 15:00:00 15.8 12 Sudoeste 21 Sudoeste 0 1023.6 -1.5 65
2020-02-08 14:00:00 15.9 16 Sudoeste 24 Sudoeste 0 1024 -1.4 66
2020-02-08 13:00:00 15.7 16 Sudoeste 21 Sudoeste 0 1024.5 -0.8 63
2020-02-08 12:00:00 16.4 7 Oeste 11 Oeste 0 1025.1 0.2 53
2020-02-08 11:00:00 13.8 2 Sudoeste 8 Sudeste 0 1025.4 1.3 73
2020-02-08 10:00:00 10.1 5 Nordeste 5 Este 0 1025.3 1.8 90
2020-02-08 09:00:00 8.6 2 Oeste 11 Noroeste 0 1024.9 1.1 94
2020-02-08 08:00:00 7.1 6 Noroeste 8 Noroeste 0 1024.1 0.4 96
2020-02-08 07:00:00 6.6 4 Este 8 Nordeste 0 1023.5 0 96
2020-02-08 06:00:00 5.5 3 Nordeste 8 Nordeste 0 1023.8 0.2 97
2020-02-08 05:00:00 4.1 4 Este -- -- 0 1023.7 0 96
2020-02-08 04:00:00 4.5 3 Este 5 Nordeste 0 1023.5 -0.4 96
2020-02-08 03:00:00 4.9 4 Este 5 Este 0 1023.6 -0.5 95
2020-02-08 02:00:00 5.4 5 Nordeste -- -- 0 1023.7 -0.3 95
2020-02-08 01:00:00 6.2 4 Este -- -- 0 1023.9 -0.1 94
2020-02-08 00:00:00 7.3 6 Norte -- -- 0 1024.1 0.2 94
2020-02-07 23:00:00 7.8 3 Este -- -- 0 1024 0.2 91
2020-02-07 22:00:00 8.3 4 Nordeste 5 Nordeste 0 1024 0.7 90
2020-02-07 21:00:00 9.9 5 Nordeste -- -- 0 1023.9 1.1 85
2020-02-07 20:00:00 10.6 -- -- -- -- 0 1023.8 1.3 83
2020-02-07 19:00:00 11.9 5 Este 13 Sudeste 0 1023.3 0.9 78
2020-02-07 18:00:00 14.1 9 Este 17 Sudeste 0 1022.8 0 70
2020-02-07 17:00:00 15.3 13 Este 24 Nordeste 0 1022.5 -0.9 63
2020-02-07 16:00:00 16.1 10 Este 17 Este 0 1022.4 -1.7 58
2020-02-07 15:00:00 16.1 8 Nordeste 18 Nordeste 0 1022.8 -2.1 57
2020-02-07 14:00:00 15.5 8 Este 15 Este 0 1023.4 -1.7 60
2020-02-07 13:00:00 14.9 9 Este 15 Este 0 1024.1 -0.8 63
2020-02-07 12:00:00 14.5 10 Este 18 Este 0 1024.9 0 64
2020-02-07 11:00:00 14.1 12 Este 18 Nordeste 0 1025.1 0.2 64
2020-02-07 10:00:00 10.8 5 Nordeste 9 Este 0 1024.9 0.2 78
2020-02-07 09:00:00 6.9 6 Este 9 Nordeste 0 1024.9 0.2 88
2020-02-07 08:00:00 6.1 8 Este 13 Este 0 1024.9 -0.2 90
2020-02-07 07:00:00 6.4 6 Este 13 Este 0 1024.7 -0.8 89
2020-02-07 06:00:00 7.5 6 Este 9 Este 0 1024.7 -1.3 89
2020-02-07 05:00:00 7.2 5 Este 9 Este 0 1025.1 -1.1 91
2020-02-07 04:00:00 6.3 5 Este 9 Este 0 1025.5 -0.9 93
2020-02-07 03:00:00 4.9 5 Nordeste 9 Este 0 1026 -0.8 93
2020-02-07 02:00:00 4.6 7 Este 11 Nordeste 0 1026.2 -0.4 94
2020-02-07 01:00:00 4.8 6 Este 9 Este 0 1026.4 -0.2 93
2020-02-07 00:00:00 4.9 4 Este 8 Este 0 1026.8 0.3 92
2020-02-06 23:00:00 6.2 5 Este 9 Este 0 1026.6 -0.2 89
2020-02-06 22:00:00 7 4 Nordeste 11 Nordeste 0 1026.6 -0.1 88
2020-02-06 21:00:00 8 9 Nordeste 13 Nordeste 0 1026.5 0.2 84
2020-02-06 20:00:00 8.2 9 Nordeste 13 Este 0 1026.8 0.5 83
2020-02-06 19:00:00 11.3 8 Sudeste 13 Sudeste 0 1026.7 0.3 70
2020-02-06 18:00:00 13.3 8 Sur 15 Sudoeste 0 1026.3 -0.1 61
2020-02-06 17:00:00 14.6 11 Sudoeste 18 Oeste 0 1026.3 -0.8 56
2020-02-06 16:00:00 15 14 Sudoeste 18 Sudoeste 0 1026.4 -1.6 46
2020-02-06 15:00:00 15.4 11 Sudoeste 17 Sudoeste 0 1026.4 -2.2 44
2020-02-06 14:00:00 15.7 6 Sur 17 Sudoeste 0 1027.1 -1.4 46
2020-02-06 13:00:00 14.9 11 Oeste 18 Oeste 0 1028 -0.3 50
2020-02-06 12:00:00 14.8 5 Sur 9 Sur 0 1028.6 0.5 52
2020-02-06 11:00:00 12.2 3 Sudeste 9 Este 0 1028.5 0.7 64
2020-02-06 10:00:00 8.6 6 Este 9 Este 0 1028.3 0.5 73
2020-02-06 09:00:00 4.2 6 Nordeste 9 Nordeste 0 1028.1 0.2 90
2020-02-06 08:00:00 2 3 Nordeste 8 Norte 0 1027.8 -0.2 94
2020-02-06 07:00:00 1.6 6 Norte 8 Norte 0 1027.8 0 95
2020-02-06 06:00:00 1.7 4 Norte 8 Nordeste 0 1027.9 -0.3 95
2020-02-06 05:00:00 2.1 6 Este 8 Este 0 1028 0 94
2020-02-06 04:00:00 2.1 3 Nordeste 8 Este 0 1027.8 0 93
2020-02-06 03:00:00 2.3 4 Nordeste 8 Este 0 1028.2 0.3 93
2020-02-06 02:00:00 2.5 5 Este 13 Este 0 1028 0.3 93
2020-02-06 01:00:00 3.4 2 Nordeste 8 Este 0 1027.8 0.1 91
2020-02-06 00:00:00 3.8 3 Sudeste 9 Nordeste 0 1027.9 0.6 91
2020-02-05 23:00:00 4.7 4 Este 11 Nordeste 0 1027.7 0.8 90
2020-02-05 22:00:00 6.9 6 Sudeste 11 Este 0 1027.7 1 82
2020-02-05 21:00:00 8.6 6 Nordeste 11 Norte 0 1027.3 1.1 77
2020-02-05 20:00:00 11 10 Noroeste 17 Noroeste 0 1026.9 0.7 67
2020-02-05 19:00:00 11.5 8 Noroeste 22 Noroeste 0 1026.7 0.3 64
2020-02-05 18:00:00 13.8 13 Noroeste 21 Noroeste 0 1026.2 -0.8 55
2020-02-05 17:00:00 15.7 12 Noroeste 28 Noroeste 0 1026.2 -1.5 52
2020-02-05 16:00:00 16.3 17 Noroeste 30 Noroeste 0 1026.4 -2 51
2020-02-05 15:00:00 16.8 13 Noroeste 24 Noroeste 0 1027 -2 47
2020-02-05 14:00:00 16.6 15 Noroeste 28 Noroeste 0 1027.7 -1.2 50
2020-02-05 13:00:00 15.5 5 Este 18 Norte 0 1028.4 -0.2 54
2020-02-05 12:00:00 14.1 15 Norte 32 Noroeste 0 1029 0.8 60
2020-02-05 11:00:00 14.9 19 Norte 33 Norte 0 1028.9 0.9 58
2020-02-05 10:00:00 13.9 6 Sur 11 Oeste 0 1028.6 0.8 63
2020-02-05 09:00:00 10.8 4 Noroeste 15 Nordeste 0 1028.2 0.3 77
2020-02-05 08:00:00 9.8 12 Nordeste 21 Nordeste 0 1028 0.2 78
2020-02-05 07:00:00 11.1 17 Nordeste 32 Nordeste 0 1027.8 0.2 72
2020-02-05 06:00:00 11.8 22 Nordeste 33 Nordeste 0 1027.9 0.1 67
2020-02-05 05:00:00 11.2 5 Nordeste 18 Nordeste 0 1027.8 0.4 71
2020-02-05 04:00:00 12.1 17 Nordeste 39 Este 0 1027.6 0.5 67
2020-02-05 03:00:00 12.2 21 Este 32 Este 0 1027.8 0.7 66
2020-02-05 02:00:00 12.5 23 Este 41 Este 0 1027.4 0.8 65
2020-02-05 01:00:00 12.8 28 Este 42 Nordeste 0 1027.1 1.3 62
2020-02-05 00:00:00 13 24 Este 42 Este 0 1027.1 2.2 62
2020-02-04 23:00:00 13.4 29 Este 50 Este 0 1026.6 2.3 64
2020-02-04 22:00:00 13.6 32 Este 45 Este 0 1025.8 2.7 68
2020-02-04 21:00:00 13.3 27 Este 37 Este 0 1024.9 3.4 74
2020-02-04 20:00:00 13.8 23 Este 37 Este 0 1024.3 3.8 79
2020-02-04 19:00:00 15.4 23 Este 33 Este 0 1023.1 2.9 74
2020-02-04 18:00:00 18.5 6 Noroeste 42 Noroeste 0 1021.5 1.1 55
2020-02-04 12:00:00 21.7 15 Noroeste 32 Noroeste 0 1022.8 -0.4 46
2020-02-04 11:00:00 19 11 Oeste 28 Oeste 0 1022.9 -0.1 66
2020-02-04 10:00:00 13.4 2 Sudoeste 11 Sur 0 1023 -0.2 94
2020-02-04 09:00:00 8.8 4 Sur 9 Norte 0 1023.2 -0.1 98
2020-02-04 08:00:00 7 3 Norte 8 Norte 0 1023 -0.7 99
2020-02-04 07:00:00 7.4 6 Nordeste 9 Nordeste 0 1023.2 -0.9 98
2020-02-04 06:00:00 8.3 5 Norte 17 Sur 0 1023.3 -1.4 98
2020-02-04 05:00:00 7.5 4 Nordeste 9 Nordeste 0 1023.7 -1.6 98
2020-02-04 04:00:00 7.3 5 Norte 9 Norte 0 1024.1 -1.7 98
2020-02-04 03:00:00 7.7 6 Este 8 Este 0 1024.7 -1.9 97
2020-02-04 02:00:00 7.8 2 Oeste -- -- 0 1025.3 -1.6 98
2020-02-04 01:00:00 8.5 3 Este 5 Este 0 1025.8 -1.4 97
2020-02-04 00:00:00 9.3 4 Este 5 Este 0 1026.6 -0.5 97
2020-02-03 23:00:00 9.8 0 Calma 5 Nordeste 0 1026.9 0 97
2020-02-03 22:00:00 10.5 5 Nordeste 8 Este 0 1027.2 0.5 97
2020-02-03 21:00:00 12.2 2 Sudoeste 5 Nordeste 0 1027.1 0.8 96
2020-02-03 20:00:00 13.1 4 Nordeste 11 Sur 0 1026.9 0.7 93
2020-02-03 19:00:00 15.2 8 Sur 17 Sudoeste 0 1026.7 0.4 87
2020-02-03 18:00:00 16.3 9 Sur 21 Sudoeste 0 1026.3 0 84
2020-02-03 17:00:00 17.5 12 Sudoeste 18 Sudoeste 0 1026.2 -0.7 81
2020-02-03 16:00:00 18.4 11 Sudoeste 17 Sudoeste 0 1026.3 -1.4 77
2020-02-03 15:00:00 18.8 11 Sudoeste 18 Sudoeste 0 1026.3 -1.9 75
2020-02-03 14:00:00 19.6 9 Sudoeste 21 Sudoeste 0 1026.9 -1.4 72
2020-02-03 13:00:00 18.7 13 Sudoeste 18 Sudoeste 0 1027.7 -0.4 76
2020-02-03 12:00:00 19.3 8 Sur 15 Sudoeste 0 1028.2 0.2 69
2020-02-03 11:00:00 18.1 8 Sudoeste 11 Sur 0 1028.3 0.8 71
2020-02-03 10:00:00 14.7 5 Sudeste 9 Sudeste 0 1028.1 1.1 90
2020-02-03 09:00:00 10.8 3 Nordeste 8 Este 0 1028 1.3 98
2020-02-03 08:00:00 10 4 Este 8 Este 0 1027.5 1 99
2020-02-03 07:00:00 10.9 2 Nordeste 5 Nordeste 0 1027 0.2 99
2020-02-03 06:00:00 11.4 5 Noroeste 9 Noroeste 0 1026.7 -0.7 99
2020-02-03 05:00:00 11.3 3 Norte 5 Este 0 1026.5 -1.1 99
2020-02-03 04:00:00 12.2 4 Nordeste 5 Nordeste 0 1026.8 -1 99
2020-02-03 03:00:00 12.7 2 Este 8 Noroeste 0 1027.4 -0.7 99
2020-02-03 02:00:00 12.7 2 Oeste 11 Sur 0 1027.6 -0.6 98
2020-02-03 01:00:00 12.5 5 Sudeste -- -- 0 1027.8 -0.6 97
2020-02-03 00:00:00 11.2 4 Este 8 Este 0 1028.1 0 95
2020-02-02 23:00:00 10.3 4 Nordeste 5 Nordeste 0 1028.2 0.6 96
2020-02-02 22:00:00 10.3 6 Norte 9 Este 0 1028.4 0.9 95
2020-02-02 21:00:00 11.9 4 Sudeste 15 Sudoeste 0 1028.1 0.8 91
2020-02-02 20:00:00 14.3 7 Sur 15 Sudoeste 0 1027.6 0.5 86
2020-02-02 19:00:00 14.6 5 Sur 18 Sur 0 1027.5 0.8 86
2020-02-02 18:00:00 16.4 10 Sur 22 Sudoeste 0 1027.3 0.8 80
2020-02-02 17:00:00 17.7 15 Sudoeste 30 Sudoeste 0 1027.1 0.3 74
2020-02-02 16:00:00 18.5 21 Sudoeste 32 Sudoeste 0 1026.7 -0.6 67
2020-02-02 15:00:00 17.8 26 Sudoeste 33 Sur 0 1026.5 -1.5 76
2020-02-02 14:00:00 17.9 15 Sur 28 Sudoeste 0 1026.8 -1.2 77
2020-02-02 13:00:00 17.9 18 Sudoeste 24 Sudoeste 0 1027.3 -0.7 76
2020-02-02 12:00:00 17.9 12 Sudoeste 15 Sur 0 1028 0.3 71
2020-02-02 11:00:00 16.2 5 Sudoeste 5 Sudoeste 0 1028 1.5 76
2020-02-02 10:00:00 12.1 3 Noroeste -- -- 0 1028 1.8 89
2020-02-02 09:00:00 8.8 5 Este 8 Este 0 1027.7 1.7 97
2020-02-02 08:00:00 6.7 3 Norte 5 Norte 0 1026.5 0.8 98
2020-02-02 07:00:00 6.8 5 Este 5 Este 0 1026.2 0.6 97
2020-02-02 06:00:00 6.8 4 Noroeste 5 Noroeste 0 1026 -0.1 97
2020-02-02 05:00:00 7.5 3 Nordeste 5 Noroeste 0 1025.7 -0.4 98
2020-02-02 04:00:00 7.9 4 Nordeste 8 Este 0 1025.6 -0.4 98
2020-02-02 03:00:00 8.1 5 Nordeste -- -- 0 1026.1 0.1 97
2020-02-02 02:00:00 8.9 4 Sudeste 8 Sudeste 0 1026.1 0.4 97
2020-02-02 01:00:00 9.1 7 Norte 15 Noroeste 0 1026 0.6 97
2020-02-02 00:00:00 9.5 5 Este 9 Norte 0 1026 1.2 96
2020-02-01 23:00:00 10.6 2 Norte 5 Norte 0 1025.7 1.5 96
2020-02-01 22:00:00 11 5 Norte -- -- 0 1025.4 2.1 96
2020-02-01 21:00:00 11.8 0 Calma 9 Este 0 1024.8 2.7 96
2020-02-01 20:00:00 12.5 8 Este 11 Este 0 1024.2 2.7 93
2020-02-01 19:00:00 14.6 8 Sudoeste 17 Este 0 1023.3 1.8 88
2020-02-01 18:00:00 15.7 12 Sudoeste 21 Sudoeste 0 1022.1 1.1 84
2020-02-01 17:00:00 17.5 10 Sudoeste 17 Sur 0 1021.5 0.4 77
2020-02-01 16:00:00 17.9 12 Sudoeste 24 Sudoeste 0 1021.5 0.1 73
2020-02-01 15:00:00 18.5 13 Sur 24 Sudoeste 0 1021 -0.5 72
2020-02-01 14:00:00 17.1 20 Sudoeste 32 Sudoeste 0 1021.1 -0.4 76
2020-02-01 13:00:00 16.9 14 Sudoeste 22 Sudoeste 0 1021.4 0.1 78
2020-02-01 12:00:00 16 12 Sur 18 Sur 0 1021.5 0.1 84
2020-02-01 11:00:00 15.3 8 Sudoeste 15 Sudoeste 0 1021.5 1 84
2020-02-01 10:00:00 12.4 5 Nordeste 13 Sudoeste 0 1021.3 1.1 91
2020-02-01 09:00:00 7.9 0 Calma 5 Noroeste 0 1021.4 1.2 97
2020-02-01 08:00:00 5.3 3 Norte 8 Este 0 1020.5 0.4 97
2020-02-01 07:00:00 5.8 3 Nordeste 5 Noroeste 0 1020.2 -0.2 97
2020-02-01 06:00:00 6 2 Este 8 Este 0 1020.2 -0.8 97
2020-02-01 05:00:00 6 4 Norte -- -- 0 1020.1 -1.1 97
2020-02-01 04:00:00 6.6 4 Este 5 Nordeste 0 1020.4 -1 97
2020-02-01 03:00:00 6.6 3 Norte 8 Este 0 1021 -0.2 96
2020-02-01 02:00:00 7.8 4 Este 5 Este 0 1021.2 -0.3 95
2020-02-01 01:00:00 8 3 Este 9 Este 0 1021.4 -0.4 94
2020-02-01 00:00:00 9 6 Este 9 Este 0 1021.2 0.1 92
2020-01-31 23:00:00 9.8 9 Nordeste 11 Nordeste 0 1021.5 0.8 91
2020-01-31 22:00:00 10.4 5 Nordeste 8 Nordeste 0 1021.8 1.4 88
2020-01-31 21:00:00 12 3 Noroeste 11 Nordeste 0 1021.1 1 79
2020-01-31 20:00:00 14.1 2 Este 13 Oeste 0 1020.7 0.8 69
2020-01-31 19:00:00 14.9 9 Oeste 17 Oeste 0 1020.4 0.5 64
2020-01-31 18:00:00 17 4 Oeste 18 Noroeste 0 1020.1 0.3 61
2020-01-31 17:00:00 18.2 13 Noroeste 22 Noroeste 0 1019.9 -0.3 54
2020-01-31 16:00:00 19.2 15 Noroeste 24 Noroeste 0 1019.9 -1.1 51
2020-01-31 15:00:00 19.5 14 Noroeste 28 Noroeste 0 1019.8 -2 51
2020-01-31 14:00:00 19.4 17 Noroeste 28 Norte 0 1020.2 -1.7 51
2020-01-31 13:00:00 17.9 12 Oeste 30 Noroeste 0 1021 -0.6 56
2020-01-31 12:00:00 18.6 13 Noroeste 22 Oeste 0 1021.8 0.6 57
2020-01-31 11:00:00 16.5 10 Noroeste 18 Noroeste 0 1021.9 1.1 65
2020-01-31 10:00:00 13.5 3 Sudoeste 9 Sur 0 1021.6 1.6 87
2020-01-31 09:00:00 10.7 4 Este 11 Este 0 1021.2 1.7 98
2020-01-31 08:00:00 10.3 5 Este 11 Este 0 1020.8 1.1 99
2020-01-31 07:00:00 10.4 3 Este 11 Este 0 1020 0 99
2020-01-31 06:00:00 9.6 7 Nordeste 11 Este 0 1019.5 -0.6 99
2020-01-31 05:00:00 9.5 3 Norte 8 Norte 0 1019.7 -0.4 99
2020-01-31 04:00:00 9.5 4 Norte 8 Nordeste 0 1020 -0.4 99
2020-01-31 03:00:00 9.3 0 Calma 8 Noroeste 0 1020.1 -0.5 98
2020-01-31 02:00:00 10 2 Norte 11 Norte 0 1020.1 -0.5 98
2020-01-31 01:00:00 10.9 5 Norte 11 Norte 0 1020.4 -0.5 98
2020-01-31 00:00:00 12.5 6 Sur 9 Sur 0 1020.6 -0.1 97
2020-01-30 23:00:00 12.9 7 Sur 13 Sur 0 1020.6 0 97
2020-01-30 22:00:00 12.6 2 Sudeste 8 Este 0 1020.9 0.3 96
2020-01-30 21:00:00 12.7 6 Este 13 Oeste 0 1020.7 0.8 94
2020-01-30 20:00:00 13.6 9 Oeste 15 Sur 0 1020.6 0.9 94
2020-01-30 19:00:00 14.4 10 Sudoeste 26 Sudoeste 0 1020.6 0.6 84
2020-01-30 18:00:00 15.4 17 Sudoeste 24 Sudoeste 0 1019.9 0.1 73
2020-01-30 17:00:00 16.7 14 Oeste 30 Sudoeste 0 1019.7 -0.7 67
2020-01-30 16:00:00 17.5 24 Sudoeste 35 Oeste 0 1020 -1.2 67
2020-01-30 15:00:00 18.4 19 Sudoeste 30 Sudoeste 0 1019.8 -1.8 65
2020-01-30 14:00:00 17.4 22 Sudoeste 30 Sudoeste 0 1020.4 -1.5 73
2020-01-30 13:00:00 16.8 15 Sudoeste 22 Sudoeste 0 1021.2 -0.4 79
2020-01-30 12:00:00 15.1 10 Sudoeste 17 Sudoeste 0 1021.6 -0.1 89
2020-01-30 11:00:00 13.3 0 Calma 5 Este 0 1021.9 0.4 98
2020-01-30 10:00:00 11.2 4 Nordeste -- -- 0 1021.6 0.8 99
2020-01-30 09:00:00 9.8 4 Nordeste 5 Nordeste 0 1021.7 0.7 99
2020-01-30 08:00:00 9.8 2 Nordeste 8 Noroeste 0 1021.5 0.5 99
2020-01-30 07:00:00 9.6 5 Norte 5 Norte 0 1020.8 -0.5 99
2020-01-30 06:00:00 10 4 Noroeste 9 Noroeste 0 1021 -0.6 99
2020-01-30 05:00:00 10.7 0 Calma 4 Oeste 0 1021 -1 99
2020-01-30 04:00:00 10.2 3 Nordeste 5 Norte 0 1021.3 -1 99
2020-01-30 03:00:00 9.2 4 Norte -- -- 0 1021.6 -0.9 99
2020-01-30 02:00:00 9.3 3 Este -- -- 0 1022 -0.8 98
2020-01-30 01:00:00 8.9 3 Norte 5 Norte 0 1022.3 -0.6 97
2020-01-30 00:00:00 9.2 5 Norte 5 Norte 0 1022.5 0 97
2020-01-29 23:00:00 10.6 2 Nordeste 8 Norte 0 1022.8 0.5 97
2020-01-29 22:00:00 10.9 3 Nordeste 11 Este 0 1022.9 1.4 95
2020-01-29 21:00:00 12.9 9 Este 13 Sudeste 0 1022.5 1.6 91
2020-01-29 20:00:00 14 5 Sudeste 9 Este 0 1022.3 1.9 90
2020-01-29 19:00:00 14.8 4 Sudeste 13 Sur 0 1021.5 1.1 89
2020-01-29 18:00:00 15.4 6 Sudeste 22 Sudoeste 0 1020.9 0.6 87
2020-01-29 17:00:00 16.2 15 Sur 24 Sudoeste 0 1020.4 -0.3 83
2020-01-29 16:00:00 16.9 20 Sudoeste 28 Sudoeste 0 1020.4 -1 81
2020-01-29 15:00:00 17.9 15 Sur 21 Sudoeste 0 1020.3 -1.7 76
2020-01-29 14:00:00 18.5 10 Sudoeste 17 Sudoeste 0 1020.7 -1.1 70
2020-01-29 13:00:00 17.5 12 Sudoeste 18 Sudoeste 0 1021.4 -0.1 77
2020-01-29 12:00:00 17.3 12 Sudoeste 15 Sudoeste 0 1022 0.7 76
2020-01-29 11:00:00 16.9 4 Sur 9 Sudoeste 0 1021.8 1.5 73
2020-01-29 10:00:00 13.4 3 Noroeste 9 Este 0 1021.5 1.4 91
2020-01-29 09:00:00 9.6 4 Nordeste 9 Nordeste 0 1021.3 1.8 97
2020-01-29 08:00:00 8.1 9 Este 11 Nordeste 0 1020.3 0.9 96
2020-01-29 07:00:00 8.5 5 Nordeste 9 Este 0 1020.1 0.5 97
2020-01-29 06:00:00 8.8 5 Norte 13 Sur 0 1019.5 -0.1 97
2020-01-29 05:00:00 9.4 3 Este 11 Este 0 1019.4 -0.2 97
2020-01-29 04:00:00 8.9 4 Nordeste 8 Nordeste 0 1019.6 -0.4 96
2020-01-29 03:00:00 9.2 4 Nordeste 17 Sudoeste 0 1019.6 -0.7 94
2020-01-29 02:00:00 13 11 Sudoeste -- -- -- 1019.6 -0.7 88
2020-01-29 01:00:00 14 20 Sudoeste 26 Sudoeste 0 1020 -0.3 85
2020-01-29 00:00:00 13.5 9 Oeste 18 Oeste 0 1020.3 -0.1 83
2020-01-28 23:00:00 14.5 12 Oeste 26 Oeste 0 1020.3 0.2 79
2020-01-28 22:00:00 13.9 13 Sudoeste 24 Sudoeste 0 1020.3 0.4 82
2020-01-28 21:00:00 13.9 14 Oeste 21 Oeste 0 1020.4 1.2 82
2020-01-28 20:00:00 14.3 14 Oeste 24 Sudoeste 0 1020.1 1.4 79
2020-01-28 19:00:00 14.9 17 Oeste 37 Oeste 0 1019.9 1.2 77
2020-01-28 18:00:00 15.3 25 Oeste 35 Oeste 0 1019.2 0.4 77
2020-01-28 17:00:00 17.1 21 Oeste 33 Sudoeste 0 1018.7 -0.6 68
2020-01-28 16:00:00 17.6 21 Sudoeste 37 Sudoeste 0 1018.7 -1.2 67
2020-01-28 15:00:00 17.4 32 Sudoeste 42 Oeste 0 1018.8 -1.4 69
2020-01-28 14:00:00 17.2 31 Sudoeste 45 Sudoeste 0 1019.3 -1.1 71
2020-01-28 13:00:00 17.3 30 Sudoeste 45 Oeste 0 1019.9 0.1 68
2020-01-28 12:00:00 16.8 32 Oeste 48 Oeste 0 1020.2 0.7 70
2020-01-28 11:00:00 16.2 37 Oeste 46 Oeste 0 1020.4 0.9 71
2020-01-28 10:00:00 15.2 32 Sudoeste 42 Sudoeste 0 1019.8 0.7 75
2020-01-28 09:00:00 13.9 27 Oeste 33 Oeste 0 1019.5 0.9 79
2020-01-28 08:00:00 13.2 17 Oeste 26 Oeste 0 1019.5 0.8 79
2020-01-28 07:00:00 12.8 6 Oeste 33 Sudoeste 0 1019.1 -0.1 80
2020-01-28 06:00:00 12.9 23 Sudoeste 30 Sudoeste 0 1018.6 -0.8 80
2020-01-28 05:00:00 13 23 Sudoeste 35 Sudoeste 0 1018.7 -1.2 81
2020-01-28 04:00:00 13.2 24 Oeste 32 Oeste 0 1019.2 -0.8 80
2020-01-28 03:00:00 13.2 20 Oeste 33 Sudoeste 0 1019.4 -0.7 82
2020-01-28 02:00:00 13.3 24 Oeste -- -- -- 1019.9 -0.8 77
2020-01-28 01:00:00 13.3 28 Oeste 37 Oeste 0 1020 -0.9 78
2020-01-28 00:00:00 13.2 17 Oeste 30 Sudoeste 0 1020.1 -0.7 77
2020-01-27 23:00:00 13.5 26 Oeste 37 Sudoeste 0 1020.7 -0.1 77
2020-01-27 22:00:00 13.7 27 Oeste 42 Sudoeste 0 1020.9 0.4 77
2020-01-27 21:00:00 13.5 31 Sudoeste 41 Sudoeste 0 1020.8 0.5 75
2020-01-27 20:00:00 11.9 11 Oeste 22 Oeste 0 1020.8 0.4 80
2020-01-27 19:00:00 12.6 15 Oeste 24 Oeste 0 1020.5 -0.3 72
2020-01-27 18:00:00 13.2 15 Oeste 24 Sudoeste 0 1020.3 -0.9 78
2020-01-27 17:00:00 14 19 Sudoeste 33 Sudoeste 0 1020.4 -1.7 72
2020-01-27 16:00:00 14.9 22 Sudoeste 30 Sudoeste 0 1020.8 -1.8 70
2020-01-27 15:00:00 15 22 Sudoeste 32 Sudoeste 0 1021.2 -2.1 69
2020-01-27 14:00:00 15.3 24 Oeste 32 Oeste 0 1022.1 -1.6 70
2020-01-27 13:00:00 15.2 22 Sudoeste 30 Oeste 0 1022.6 -1.3 74
2020-01-27 12:00:00 15.1 17 Sudoeste 26 Sudoeste 0 1023.3 -0.4 74
2020-01-27 11:00:00 11.8 0 Calma 5 Este 0 1023.7 0.3 83
2020-01-27 10:00:00 9.3 0 Calma 5 Sur 0 1023.9 0.9 91
2020-01-27 09:00:00 5.4 3 Norte 5 Nordeste 0 1023.7 0.9 97
2020-01-27 08:00:00 4.3 4 Nordeste 8 Nordeste 0 1023.4 0.7 97
2020-01-27 07:00:00 4 3 Este 8 Este 0 1023 0.2 97
2020-01-27 06:00:00 4.4 3 Este 5 Este 0 1022.8 -0.3 97
2020-01-27 05:00:00 4.2 0 Calma -- -- 0 1022.7 -0.5 97
2020-01-27 04:00:00 4.7 3 Este -- -- 0 1022.8 -0.5 97
2020-01-27 03:00:00 5.4 4 Este 5 Este 0 1023.1 -0.1 96
2020-01-27 02:00:00 5.7 3 Nordeste -- -- -- 1023.2 0.2 95
2020-01-27 01:00:00 6.6 5 Nordeste 9 Este 0 1023.3 0.6 95
2020-01-27 00:00:00 7.7 3 Sur 11 Oeste 0 1023.2 0.8 92
2020-01-26 23:00:00 8.8 8 Sudoeste 13 Oeste 0 1023 1.1 88
2020-01-26 22:00:00 8.4 3 Norte 15 Oeste 0 1022.7 1.5 91
2020-01-26 21:00:00 11.2 9 Oeste 15 Noroeste 0 1022.4 1.9 80
2020-01-26 20:00:00 11.2 7 Oeste 13 Noroeste 0 1021.9 1.8 81
2020-01-26 19:00:00 12 8 Noroeste 18 Oeste 0 1021.2 1.6 77
2020-01-26 18:00:00 13.3 12 Noroeste 26 Noroeste 0 1020.5 1.2 73
2020-01-26 17:00:00 14.9 18 Noroeste 30 Noroeste 0 1020.1 0.7 70
2020-01-26 16:00:00 16.7 14 Noroeste 24 Noroeste 0 1019.6 0 64
2020-01-26 15:00:00 16.5 15 Noroeste 30 Norte 0 1019.3 -0.8 67
2020-01-26 14:00:00 16.4 15 Oeste 26 Oeste 0 1019.4 -0.5 67
2020-01-26 13:00:00 15.7 14 Noroeste 26 Noroeste 0 1019.6 0.6 69
2020-01-26 12:00:00 15.2 11 Oeste 15 Oeste 0 1020.1 1.6 74
2020-01-26 11:00:00 12.6 4 Oeste 5 Oeste 0 1019.9 2 83
2020-01-26 10:00:00 10.3 0 Calma 5 Este 0 1019 1.4 90
2020-01-26 09:00:00 6.6 2 Norte 9 Norte 0 1018.5 1.1 97
2020-01-26 08:00:00 5.2 4 Nordeste 8 Norte 0 1017.9 0.8 98
2020-01-26 07:00:00 5.9 3 Este 8 Nordeste 0 1017.6 0.6 97
2020-01-26 06:00:00 6.2 4 Este -- -- 0 1017.4 0.2 96
2020-01-26 05:00:00 6.9 5 Nordeste 8 Nordeste 0 1017.1 -0.3 93
2020-01-26 04:00:00 7 3 Norte 9 Noroeste 0 1017 -0.7 92
2020-01-26 03:00:00 7.9 4 Nordeste 11 Noroeste 0 1017.2 -0.4 95
2020-01-26 02:00:00 8.5 3 Norte -- -- -- 1017.4 0.2 96
2020-01-26 01:00:00 9.3 4 Nordeste 8 Este 0 1017.7 0.2 94
2020-01-26 00:00:00 10.1 6 Sudoeste -- -- 0 1017.6 -0.1 94
2020-01-25 23:00:00 11 4 Nordeste 11 Este 0 1017.2 -0.4 95
2020-01-25 22:00:00 11.7 5 Norte 15 Este 0 1017.5 0.1 94
2020-01-25 21:00:00 12.1 8 Este 11 Este 0 1017.7 0.9 93
2020-01-25 20:00:00 13.3 8 Este 11 Este 0 1017.6 0.6 87
2020-01-25 19:00:00 14 5 Este 13 Nordeste 0 1017.4 0.2 80
2020-01-25 18:00:00 14.9 5 Nordeste 13 Sur 0 1016.8 -0.7 76
2020-01-25 17:00:00 16.1 7 Sudeste 13 Este 0 1017 -1.2 65
2020-01-25 16:00:00 16.6 8 Este 17 Este 0 1017.2 -2.3 74
2020-01-25 15:00:00 17 10 Este 18 Nordeste 0 1017.5 -2.9 72
2020-01-25 14:00:00 16.3 11 Nordeste 21 Este 0 1018.2 -2.3 74
2020-01-25 13:00:00 15.2 12 Este 21 Este 0 1019.5 -1.2 77
2020-01-25 12:00:00 14.7 15 Este 22 Este 0 1020.4 -0.2 80
2020-01-25 11:00:00 14.2 10 Este 17 Este 0 1020.5 0.2 81
2020-01-25 10:00:00 11 5 Este 9 Nordeste 0 1020.7 0.8 91
2020-01-25 09:00:00 9.5 5 Nordeste 13 Este 0 1020.6 0.8 93
2020-01-25 08:00:00 9.5 9 Este 13 Este 0 1020.3 0.2 94
2020-01-25 07:00:00 9.1 9 Este 13 Sudeste 0 1019.9 -0.7 96
2020-01-25 06:00:00 8.8 4 Este 9 Este 0 1019.8 -1.3 96
2020-01-25 05:00:00 9 6 Este 9 Nordeste 0 1020.1 -1.2 96
2020-01-25 04:00:00 8.5 4 Nordeste 9 Nordeste 0 1020.6 -1.2 96
2020-01-25 03:00:00 9 5 Este 8 Este 0 1021.1 -0.7 95
2020-01-25 02:00:00 9.5 -- -- -- -- -- 1021.3 -0.5 94
2020-01-25 01:00:00 9.8 7 Nordeste 11 Nordeste 0 1021.8 0 93
2020-01-25 00:00:00 10.2 6 Nordeste 11 Sudeste 0 1021.8 0 92
2020-01-24 23:00:00 10.3 7 Este 11 Este 0 1021.8 0 92
2020-01-24 22:00:00 11 5 Nordeste 9 Nordeste 0 1021.8 0.7 91
2020-01-24 21:00:00 11.1 4 Nordeste 9 Nordeste 0 1021.8 1 93
2020-01-24 20:00:00 10.9 4 Este 11 Este 0 1021.8 1.5 92
2020-01-24 19:00:00 12.5 4 Este 18 Sudoeste 0 1021.1 1 87
2020-01-24 18:00:00 13.8 14 Sudoeste 18 Sudoeste 0 1020.8 0.5 80
2020-01-24 17:00:00 15.2 8 Oeste 11 Oeste 0 1020.3 -0.4 71
2020-01-24 16:00:00 15.4 8 Sudoeste 18 Sudoeste 0 1020.1 -0.9 67
2020-01-24 15:00:00 15.8 13 Sudoeste 30 Sudoeste 0 1020.3 -1.5 65
2020-01-24 14:00:00 16.7 14 Sudoeste 22 Sudoeste 0 1020.7 -1.3 61
2020-01-24 13:00:00 16.8 2 Este 9 Este 0 1021 -0.9 58
2020-01-24 12:00:00 14.9 6 Este 13 Este 0 1021.8 0 72
2020-01-24 11:00:00 12.5 5 Nordeste 8 Nordeste 0 1022 0.7 85
2020-01-24 10:00:00 8.9 5 Nordeste 8 Norte 0 1021.9 0.8 91
2020-01-24 09:00:00 5.8 4 Norte -- -- 0 1021.8 0.8 96
2020-01-24 08:00:00 4.7 6 Norte 9 Norte 0 1021.3 0.3 97
2020-01-24 07:00:00 4.9 4 Norte 8 Norte 0 1021.1 -0.3 97
2020-01-24 06:00:00 5.2 4 Nordeste 8 Este 0 1021 -0.8 97
2020-01-24 05:00:00 5.6 4 Nordeste 8 Norte 0 1021 -0.7 97
2020-01-24 04:00:00 6 5 Nordeste -- -- 0 1021.4 -0.7 97
2020-01-24 03:00:00 6.5 0 Calma 8 Noroeste 0 1021.8 -0.6 96
2020-01-24 02:00:00 7 2 Norte 8 Noroeste 0 1021.7 -0.7 96
2020-01-24 01:00:00 7.8 4 Nordeste 11 Nordeste 0 1022.1 -0.3 96
2020-01-24 00:00:00 8.4 6 Nordeste 11 Nordeste 0 1022.4 0.1 97
2020-01-23 23:00:00 9.3 5 Norte 11 Este 0 1022.4 0.5 95
2020-01-23 22:00:00 10 6 Nordeste 11 Nordeste 0 1022.4 1 94
2020-01-23 21:00:00 10.1 5 Este 9 Sudeste 0 1022.3 1.5 93
2020-01-23 20:00:00 10.3 3 Este 8 Este 0 1021.9 1.2 93
2020-01-23 19:00:00 12.1 8 Este 17 Este 0 1021.4 0.9 90
2020-01-23 18:00:00 13.5 4 Oeste -- -- 0 1020.8 0 82
2020-01-23 17:00:00 15.1 8 Sudoeste 15 Sudoeste 0 1020.7 -0.4 75
2020-01-23 16:00:00 15.7 9 Sudoeste 15 Oeste 0 1020.5 -0.9 71
2020-01-23 15:00:00 15.7 11 Oeste 15 Oeste -- 1020.8 -1 73
2020-01-23 14:00:00 16.1 10 Sudoeste 15 Sudoeste 0 1021.1 -0.5 67
2020-01-23 13:00:00 17 4 Sudoeste -- -- -- 1021.4 0.1 59
2020-01-23 12:00:00 15.5 5 Este 9 Este 0 1021.8 1 67
2020-01-23 11:00:00 13.5 4 Nordeste 11 Este 0 1021.6 1.1 82
2020-01-23 10:00:00 11.1 7 Este 13 Este 0 1021.3 1.9 93
2020-01-23 09:00:00 9.3 5 Este 8 Nordeste 0 1020.8 2.2 97
2020-01-23 08:00:00 9.6 3 Nordeste 11 Noroeste 0 1020.5 2.5 97
2020-01-23 07:00:00 9.9 4 Este 13 Sudeste 0 1019.4 1.4 97
2020-01-23 06:00:00 9.6 5 Este 9 Este 0 1018.6 0.8 97
2020-01-23 05:00:00 10.2 6 Este 9 Este 0 1018 0.6 96
2020-01-23 04:00:00 11.4 6 Sudoeste 8 Sudoeste 0 1018 0.1 94
2020-01-23 03:00:00 12 5 Sudeste 13 Este 0 1017.8 -0.3 94
2020-01-23 02:00:00 12.6 8 Sudeste 11 Este 0 1017.4 -0.2 93
2020-01-23 01:00:00 13.1 2 Nordeste 13 Sudeste 1 1017.9 1 96
2020-01-23 00:00:00 13.5 12 Sudeste 15 Sudeste 0.4 1018.1 1.3 93
2020-01-22 23:00:00 14 6 Este 13 Este 0 1017.6 1.2 89
2020-01-22 22:00:00 14.5 3 Nordeste 21 Este 0 1016.9 0.6 84
2020-01-22 21:00:00 14.8 15 Nordeste 28 Nordeste 0 1016.8 1 82
2020-01-22 20:00:00 14.6 19 Nordeste 28 Nordeste 0 1016.4 0.8 85
2020-01-22 19:00:00 14.2 14 Nordeste -- -- -- 1016.3 0.4 88
2020-01-22 18:00:00 14.6 9 Este 21 Nordeste 0 1015.8 -0.4 83
2020-01-22 17:00:00 15.7 12 Sudeste 18 Sudeste 0 1015.6 -1.3 78
2020-01-22 16:00:00 16.8 16 Sudeste 24 Este 0 1015.9 -1.7 71
2020-01-22 15:00:00 16.8 15 Este 32 Sudeste 0 1016.2 -2.4 75
2020-01-22 14:00:00 16.3 12 Sudeste 21 Sudeste 0 1016.9 -1.8 78
2020-01-22 13:00:00 15.6 15 Este 28 Nordeste 0 1017.6 -1.2 83
2020-01-22 12:00:00 15.1 15 Nordeste 30 Nordeste 0 1018.6 -0.3 84
2020-01-22 11:00:00 14.8 21 Nordeste 33 Nordeste 0 1018.7 0.4 82
2020-01-22 10:00:00 11.5 6 Nordeste 13 Nordeste 0 1018.8 0.1 89
2020-01-22 09:00:00 9.6 5 Nordeste 9 Nordeste 0 1018.9 -0.1 92
2020-01-22 08:00:00 8.8 7 Noroeste 13 Noroeste 0 1018.3 -0.6 91
2020-01-22 07:00:00 8.2 6 Norte 13 Norte 0 1018.7 -0.4 94
2020-01-22 06:00:00 8 9 Norte 11 Norte 0 1019 0 94
2020-01-22 05:00:00 8.3 6 Norte 15 Norte 0 1018.9 -0.1 95
2020-01-22 04:00:00 8.3 8 Norte 11 Norte 0 1019.1 0 98
2020-01-22 03:00:00 8.9 7 Noroeste 9 Noroeste 0 1019 -0.2 98
2020-01-22 02:00:00 9.4 4 Este 9 Este 0 1019 0 98
2020-01-22 01:00:00 10 5 Este 13 Este 0 1019.1 0.3 97
2020-01-22 00:00:00 10.7 6 Este 11 Este 0 1019.2 0.9 97